createdAt,value
2023-05-05T00:00:27.151Z,61.77
2023-05-05T00:01:27.170Z,62.37
2023-05-05T00:02:27.183Z,61.97
2023-05-05T00:03:27.216Z,62.23
2023-05-05T00:04:27.181Z,62.44
2023-05-05T00:05:27.196Z,60.29
2023-05-05T00:06:27.213Z,60.57
2023-05-05T00:07:27.206Z,61.68
2023-05-05T00:08:27.229Z,59.81
2023-05-05T00:09:27.247Z,63.41
2023-05-05T00:10:27.244Z,61.50
2023-05-05T00:11:27.260Z,60.57
2023-05-05T00:12:27.263Z,61.93
2023-05-05T00:13:27.266Z,62.10
2023-05-05T00:14:27.286Z,58.70
2023-05-05T00:15:27.311Z,60.58
2023-05-05T00:16:27.379Z,59.86
2023-05-05T00:17:27.401Z,60.58
2023-05-05T00:18:27.324Z,58.50
2023-05-05T00:19:27.343Z,61.92
2023-05-05T00:20:27.354Z,61.28
2023-05-05T00:21:27.357Z,59.84
2023-05-05T00:22:27.384Z,57.71
2023-05-05T00:23:27.375Z,58.50
2023-05-05T00:24:27.426Z,58.88
2023-05-05T00:25:27.429Z,60.14
2023-05-05T00:26:27.453Z,58.82
2023-05-05T00:27:27.481Z,58.38
2023-05-05T00:28:27.493Z,60.47
2023-05-05T00:29:27.487Z,60.32
2023-05-05T00:30:27.580Z,56.69
2023-05-05T00:31:27.586Z,58.98
2023-05-05T00:32:27.583Z,58.81
2023-05-05T00:33:27.563Z,58.14
2023-05-05T00:34:27.603Z,58.51
2023-05-05T00:35:27.610Z,59.21
2023-05-05T00:36:27.630Z,57.52
2023-05-05T00:37:27.643Z,59.15
2023-05-05T00:38:27.651Z,57.82
2023-05-05T00:39:27.677Z,58.45
2023-05-05T00:40:27.726Z,59.47
2023-05-05T00:41:27.738Z,58.32
2023-05-05T00:42:27.732Z,57.19
2023-05-05T00:43:27.735Z,59.53
2023-05-05T00:44:27.797Z,55.71
2023-05-05T00:45:27.811Z,54.20
2023-05-05T00:46:27.954Z,56.75
2023-05-05T00:47:27.901Z,57.69
2023-05-05T00:48:27.895Z,57.83
2023-05-05T00:49:27.926Z,57.26
2023-05-05T00:50:27.920Z,58.48
2023-05-05T00:51:27.945Z,57.09
2023-05-05T00:52:27.952Z,58.30
2023-05-05T00:53:28.030Z,57.42
2023-05-05T00:54:28.009Z,57.00
2023-05-05T00:55:28.055Z,57.26
2023-05-05T00:56:28.088Z,57.07
2023-05-05T00:57:28.099Z,53.91
2023-05-05T00:58:28.098Z,56.57
2023-05-05T00:59:28.142Z,55.61
2023-05-05T01:00:28.187Z,55.84
2023-05-05T01:01:28.221Z,55.41
2023-05-05T01:02:28.249Z,55.50
2023-05-05T01:03:28.281Z,55.22
2023-05-05T01:04:28.315Z,55.54
2023-05-05T01:05:28.244Z,57.41
2023-05-05T01:06:28.284Z,56.05
2023-05-05T01:07:28.291Z,56.62
2023-05-05T01:08:28.293Z,57.90
2023-05-05T01:09:28.346Z,55.61
2023-05-05T01:10:28.361Z,55.57
2023-05-05T01:11:28.405Z,55.31
2023-05-05T01:12:28.396Z,56.55
2023-05-05T01:13:28.444Z,53.87
2023-05-05T01:14:28.454Z,54.97
2023-05-05T01:15:28.480Z,56.37
2023-05-05T01:16:28.501Z,56.13
2023-05-05T01:17:28.535Z,55.68
2023-05-05T01:18:28.500Z,54.58
2023-05-05T01:19:28.545Z,55.15
2023-05-05T01:20:28.560Z,55.62
2023-05-05T01:21:28.635Z,55.02
2023-05-05T01:22:28.623Z,54.02
2023-05-05T01:23:28.644Z,56.54
2023-05-05T01:24:28.645Z,53.77
2023-05-05T01:25:28.682Z,55.75
2023-05-05T01:26:28.705Z,53.02
2023-05-05T01:27:28.724Z,56.73
2023-05-05T01:28:28.753Z,55.19
2023-05-05T01:29:28.761Z,52.56
2023-05-05T01:30:28.801Z,56.19
2023-05-05T01:31:28.861Z,53.15
2023-05-05T01:32:28.886Z,53.75
2023-05-05T01:33:28.883Z,55.35
2023-05-05T01:34:28.902Z,53.70
2023-05-05T01:35:28.929Z,55.50
2023-05-05T01:36:28.927Z,53.99
2023-05-05T01:37:28.988Z,53.29
2023-05-05T01:38:29.031Z,51.93
2023-05-05T01:39:29.047Z,53.83
2023-05-05T01:40:29.044Z,51.88
2023-05-05T01:41:29.098Z,53.43
2023-05-05T01:42:29.120Z,53.35
2023-05-05T01:43:29.143Z,52.82
2023-05-05T01:44:29.172Z,52.04
2023-05-05T01:45:29.209Z,51.52
2023-05-05T01:46:29.210Z,53.77
2023-05-05T01:47:29.271Z,52.11
2023-05-05T01:48:29.281Z,51.75
2023-05-05T01:49:29.290Z,52.33
2023-05-05T01:50:29.378Z,51.70
2023-05-05T01:51:29.355Z,53.39
2023-05-05T01:52:29.384Z,50.76
2023-05-05T01:53:29.399Z,53.78
2023-05-05T01:54:29.452Z,52.02
2023-05-05T01:55:29.454Z,53.87
2023-05-05T01:56:29.489Z,51.57
2023-05-05T01:57:29.519Z,51.22
2023-05-05T01:58:29.521Z,52.44
2023-05-05T01:59:29.589Z,51.97
2023-05-05T02:00:29.621Z,52.55
2023-05-05T02:01:29.684Z,53.47
2023-05-05T02:02:29.694Z,53.15
2023-05-05T02:03:29.715Z,49.78
2023-05-05T02:04:29.719Z,51.02
2023-05-05T02:05:29.744Z,52.33
2023-05-05T02:06:29.782Z,52.12
2023-05-05T02:07:29.819Z,52.34
2023-05-05T02:08:29.821Z,49.99
2023-05-05T02:09:29.878Z,50.58
2023-05-05T02:10:29.903Z,51.19
2023-05-05T02:11:29.918Z,49.86
2023-05-05T02:12:30.079Z,51.80
2023-05-05T02:13:29.975Z,50.66
2023-05-05T02:14:30.031Z,49.72
2023-05-05T02:15:30.094Z,53.66
2023-05-05T02:16:30.076Z,52.22
2023-05-05T02:17:30.117Z,50.79
2023-05-05T02:18:30.101Z,50.53
2023-05-05T02:19:30.162Z,51.37
2023-05-05T02:20:30.171Z,49.97
2023-05-05T02:21:30.221Z,51.58
2023-05-05T02:22:30.237Z,49.66
2023-05-05T02:23:30.242Z,49.85
2023-05-05T02:24:30.291Z,50.38
2023-05-05T02:25:30.300Z,49.55
2023-05-05T02:26:30.333Z,48.94
2023-05-05T02:27:30.345Z,49.86
2023-05-05T02:28:30.392Z,49.09
2023-05-05T02:29:30.416Z,52.26
2023-05-05T02:30:30.442Z,46.86
2023-05-05T02:31:30.519Z,50.36
2023-05-05T02:32:30.546Z,50.72
2023-05-05T02:33:30.499Z,49.05
2023-05-05T02:34:30.537Z,49.66
2023-05-05T02:35:30.549Z,46.65
2023-05-05T02:36:30.588Z,47.43
2023-05-05T02:37:30.642Z,48.45
2023-05-05T02:38:30.657Z,49.38
2023-05-05T02:39:30.692Z,48.18
2023-05-05T02:40:30.702Z,48.65
2023-05-05T02:41:30.773Z,50.44
2023-05-05T02:42:30.757Z,49.45
2023-05-05T02:43:30.785Z,47.64
2023-05-05T02:44:30.810Z,49.52
2023-05-05T02:45:30.853Z,49.43
2023-05-05T02:46:30.967Z,48.20
2023-05-05T02:47:30.910Z,49.38
2023-05-05T02:48:30.925Z,48.24
2023-05-05T02:49:30.981Z,48.75
2023-05-05T02:50:30.974Z,49.11
2023-05-05T02:51:31.026Z,48.45
2023-05-05T02:52:31.026Z,48.31
2023-05-05T02:53:31.028Z,45.84
2023-05-05T02:54:31.078Z,47.98
2023-05-05T02:55:31.078Z,46.98
2023-05-05T02:56:31.129Z,48.36
2023-05-05T02:57:31.163Z,49.26
2023-05-05T02:58:31.179Z,48.71
2023-05-05T02:59:31.261Z,48.87
2023-05-05T03:00:31.252Z,46.98
2023-05-05T03:01:31.329Z,47.68
2023-05-05T03:02:31.344Z,46.20
2023-05-05T03:03:31.396Z,47.10
2023-05-05T03:04:31.335Z,47.53
2023-05-05T03:05:31.395Z,46.10
2023-05-05T03:06:31.436Z,46.86
2023-05-05T03:07:31.403Z,46.73
2023-05-05T03:08:31.448Z,46.85
2023-05-05T03:09:31.476Z,45.05
2023-05-05T03:10:31.536Z,46.92
2023-05-05T03:11:31.523Z,45.43
2023-05-05T03:12:31.561Z,48.27
2023-05-05T03:13:31.584Z,45.78
2023-05-05T03:14:33.421Z,45.75
2023-05-05T03:15:31.634Z,46.07
2023-05-05T03:16:31.681Z,45.88
2023-05-05T03:17:31.700Z,46.67
2023-05-05T03:18:31.698Z,43.10
2023-05-05T03:19:31.721Z,44.14
2023-05-05T03:20:31.753Z,43.44
2023-05-05T03:21:31.791Z,44.80
2023-05-05T03:22:31.784Z,45.19
2023-05-05T03:23:31.825Z,45.71
2023-05-05T03:24:31.876Z,44.35
2023-05-05T03:25:31.887Z,46.99
2023-05-05T03:26:31.893Z,45.01
2023-05-05T03:27:31.914Z,46.10
2023-05-05T03:28:31.964Z,45.32
2023-05-05T03:29:31.990Z,42.79
2023-05-05T03:30:32.013Z,44.86
2023-05-05T03:31:32.075Z,44.83
2023-05-05T03:32:32.078Z,42.97
2023-05-05T03:33:32.045Z,44.51
2023-05-05T03:34:32.107Z,44.47
2023-05-05T03:35:32.222Z,45.11
2023-05-05T03:36:32.233Z,43.73
2023-05-05T03:37:32.236Z,45.23
2023-05-05T03:38:32.227Z,42.79
2023-05-05T03:39:32.216Z,44.58
2023-05-05T03:40:40.735Z,43.02
2023-05-05T03:41:33.253Z,43.17
2023-05-05T03:42:32.253Z,43.08
2023-05-05T03:43:32.232Z,43.52
2023-05-05T03:44:32.266Z,43.30
2023-05-05T03:45:32.390Z,42.24
2023-05-05T03:46:32.226Z,44.33
2023-05-05T03:47:32.255Z,43.31
2023-05-05T03:48:32.319Z,41.75
2023-05-05T03:49:32.176Z,46.11
2023-05-05T03:50:32.153Z,42.06
2023-05-05T03:51:32.187Z,44.46
2023-05-05T03:52:32.186Z,44.02
2023-05-05T03:53:32.175Z,43.51
2023-05-05T03:54:32.138Z,42.62
2023-05-05T03:55:32.141Z,44.51
2023-05-05T03:56:32.138Z,43.50
2023-05-05T03:57:32.181Z,41.80
2023-05-05T03:58:32.207Z,42.63
2023-05-05T03:59:32.208Z,44.25
2023-05-05T04:00:32.252Z,42.25
2023-05-05T04:01:32.283Z,39.79
2023-05-05T04:02:32.401Z,41.30
2023-05-05T04:03:32.483Z,40.53
2023-05-05T04:04:32.517Z,42.75
2023-05-05T04:05:32.489Z,39.88
2023-05-05T04:06:32.392Z,42.26
2023-05-05T04:07:32.454Z,37.79
2023-05-05T04:08:32.442Z,39.35
2023-05-05T04:09:32.478Z,39.87
2023-05-05T04:10:32.522Z,43.09
2023-05-05T04:11:32.516Z,42.17
2023-05-05T04:12:32.580Z,40.35
2023-05-05T04:13:32.570Z,39.78
2023-05-05T04:14:32.582Z,40.56
2023-05-05T04:15:32.632Z,43.04
2023-05-05T04:16:32.766Z,40.74
2023-05-05T04:17:32.742Z,40.01
2023-05-05T04:18:32.847Z,40.23
2023-05-05T04:19:32.762Z,41.90
2023-05-05T04:20:32.791Z,40.72
2023-05-05T04:21:32.831Z,41.16
2023-05-05T04:22:32.871Z,40.31
2023-05-05T04:23:32.906Z,40.80
2023-05-05T04:24:32.942Z,38.10
2023-05-05T04:25:32.973Z,39.67
2023-05-05T04:26:32.999Z,38.75
2023-05-05T04:27:33.034Z,40.87
2023-05-05T04:28:33.062Z,39.39
2023-05-05T04:29:33.102Z,39.75
2023-05-05T04:30:33.146Z,40.00
2023-05-05T04:31:33.222Z,37.96
2023-05-05T04:32:33.240Z,36.33
2023-05-05T04:33:33.217Z,39.50
2023-05-05T04:34:33.264Z,40.67
2023-05-05T04:35:33.304Z,39.28
2023-05-05T04:36:33.346Z,40.17
2023-05-05T04:37:33.357Z,39.43
2023-05-05T04:38:33.441Z,37.64
2023-05-05T04:39:33.428Z,38.70
2023-05-05T04:40:33.550Z,40.44
2023-05-05T04:41:33.541Z,38.79
2023-05-05T04:42:33.547Z,39.57
2023-05-05T04:43:33.575Z,38.40
2023-05-05T04:44:33.655Z,37.30
2023-05-05T04:45:33.677Z,39.54
2023-05-05T04:46:33.980Z,39.28
2023-05-05T04:47:33.724Z,37.79
2023-05-05T04:48:33.765Z,38.62
2023-05-05T04:49:33.812Z,38.81
2023-05-05T04:50:33.848Z,37.32
2023-05-05T04:51:33.863Z,40.75
2023-05-05T04:52:33.906Z,40.23
2023-05-05T04:53:33.949Z,39.28
2023-05-05T04:54:33.978Z,38.40
2023-05-05T04:55:34.046Z,38.93
2023-05-05T04:56:34.037Z,38.32
2023-05-05T04:57:34.088Z,38.56
2023-05-05T04:58:34.102Z,38.94
2023-05-05T04:59:34.147Z,38.24
2023-05-05T05:00:34.184Z,37.32
2023-05-05T05:01:36.232Z,38.42
2023-05-05T05:02:34.266Z,37.87
2023-05-05T05:03:34.314Z,38.03
2023-05-05T05:04:34.200Z,39.10
2023-05-05T05:05:34.198Z,37.64
2023-05-05T05:06:34.203Z,37.62
2023-05-05T05:07:34.190Z,36.29
2023-05-05T05:08:34.189Z,39.14
2023-05-05T05:09:34.177Z,37.64
2023-05-05T05:10:34.162Z,38.10
2023-05-05T05:11:34.155Z,35.67
2023-05-05T05:12:34.161Z,38.14
2023-05-05T05:13:34.146Z,36.12
2023-05-05T05:14:34.134Z,36.58
2023-05-05T05:15:34.133Z,35.72
2023-05-05T05:16:34.191Z,37.28
2023-05-05T05:17:34.145Z,37.50
2023-05-05T05:18:34.124Z,37.83
2023-05-05T05:19:34.087Z,36.07
2023-05-05T05:20:34.089Z,36.17
2023-05-05T05:21:34.101Z,35.50
2023-05-05T05:22:34.124Z,37.33
2023-05-05T05:23:34.956Z,39.61
2023-05-05T05:24:34.067Z,35.73
2023-05-05T05:25:34.086Z,36.32
2023-05-05T05:26:34.065Z,34.81
2023-05-05T05:27:34.038Z,36.43
2023-05-05T05:28:34.059Z,34.22
2023-05-05T05:29:34.018Z,36.65
2023-05-05T05:30:34.025Z,36.59
2023-05-05T05:31:34.076Z,35.71
2023-05-05T05:32:34.038Z,36.19
2023-05-05T05:33:34.003Z,36.42
2023-05-05T05:34:34.029Z,36.39
2023-05-05T05:35:34.007Z,36.50
2023-05-05T05:36:34.009Z,34.18
2023-05-05T05:37:33.963Z,35.71
2023-05-05T05:38:33.970Z,37.00
2023-05-05T05:39:34.027Z,38.24
2023-05-05T05:40:33.971Z,37.09
2023-05-05T05:41:33.955Z,34.64
2023-05-05T05:42:33.943Z,36.30
2023-05-05T05:43:33.949Z,34.28
2023-05-05T05:44:34.025Z,34.87
2023-05-05T05:45:33.922Z,36.06
2023-05-05T05:46:33.997Z,35.58
2023-05-05T05:47:33.949Z,33.66
2023-05-05T05:48:33.919Z,36.73
2023-05-05T05:49:33.898Z,35.74
2023-05-05T05:50:33.889Z,35.20
2023-05-05T05:51:33.919Z,37.28
2023-05-05T05:52:33.917Z,35.14
2023-05-05T05:53:33.955Z,37.01
2023-05-05T05:54:33.978Z,37.17
2023-05-05T05:55:34.003Z,38.54
2023-05-05T05:56:34.025Z,37.77
2023-05-05T05:57:34.051Z,35.82
2023-05-05T05:58:34.052Z,33.20
2023-05-05T05:59:34.121Z,36.18
2023-05-05T06:00:34.202Z,37.09
2023-05-05T06:01:34.150Z,37.02
2023-05-05T06:02:34.258Z,38.68
2023-05-05T06:03:34.395Z,35.07
2023-05-05T06:04:34.333Z,39.68
2023-05-05T06:05:34.313Z,36.77
2023-05-05T06:06:34.300Z,35.32
2023-05-05T06:07:34.316Z,39.10
2023-05-05T06:08:34.339Z,39.45
2023-05-05T06:09:34.372Z,38.60
2023-05-05T06:10:34.691Z,38.58
2023-05-05T06:11:34.403Z,37.67
2023-05-05T06:12:34.440Z,38.22
2023-05-05T06:13:34.498Z,39.51
2023-05-05T06:14:34.526Z,40.69
2023-05-05T06:15:34.558Z,36.56
2023-05-05T06:16:34.565Z,41.73
2023-05-05T06:17:34.614Z,38.10
2023-05-05T06:18:34.628Z,38.90
2023-05-05T06:19:34.647Z,38.46
2023-05-05T06:20:34.699Z,40.89
2023-05-05T06:21:34.710Z,38.13
2023-05-05T06:22:34.756Z,38.23
2023-05-05T06:23:34.773Z,41.05
2023-05-05T06:24:34.794Z,39.59
2023-05-05T06:25:34.865Z,38.88
2023-05-05T06:26:34.976Z,38.27
2023-05-05T06:27:34.881Z,35.99
2023-05-05T06:28:34.880Z,42.41
2023-05-05T06:29:34.946Z,38.31
2023-05-05T06:30:34.960Z,38.04
2023-05-05T06:31:34.992Z,38.28
2023-05-05T06:32:35.047Z,41.78
2023-05-05T06:33:35.037Z,41.03
2023-05-05T06:34:35.044Z,39.22
2023-05-05T06:35:35.061Z,42.07
2023-05-05T06:36:35.121Z,41.57
2023-05-05T06:37:35.148Z,41.00
2023-05-05T06:38:35.167Z,40.49
2023-05-05T06:39:35.174Z,39.66
2023-05-05T06:40:35.237Z,41.29
2023-05-05T06:41:35.233Z,41.97
2023-05-05T06:42:35.242Z,43.13
2023-05-05T06:43:35.275Z,42.59
2023-05-05T06:44:35.286Z,41.80
2023-05-05T06:45:35.306Z,39.79
2023-05-05T06:46:35.611Z,40.48
2023-05-05T06:47:35.388Z,45.21
2023-05-05T06:48:35.420Z,44.39
2023-05-05T06:49:35.422Z,44.74
2023-05-05T06:50:35.457Z,42.62
2023-05-05T06:51:35.467Z,44.03
2023-05-05T06:52:35.508Z,40.20
2023-05-05T06:53:35.566Z,39.96
2023-05-05T06:54:35.527Z,39.44
2023-05-05T06:55:35.578Z,41.71
2023-05-05T06:56:35.592Z,41.51
2023-05-05T06:57:35.620Z,40.66
2023-05-05T06:58:35.642Z,43.52
2023-05-05T06:59:35.655Z,43.12
2023-05-05T07:00:35.741Z,42.69
2023-05-05T07:01:35.743Z,43.67
2023-05-05T07:02:35.747Z,45.48
2023-05-05T07:03:35.838Z,41.87
2023-05-05T07:04:35.811Z,43.76
2023-05-05T07:05:35.818Z,42.64
2023-05-05T07:06:36.008Z,44.49
2023-05-05T07:07:35.857Z,45.71
2023-05-05T07:08:35.896Z,47.04
2023-05-05T07:09:35.952Z,45.71
2023-05-05T07:10:35.948Z,44.97
2023-05-05T07:11:35.941Z,47.19
2023-05-05T07:12:36.006Z,45.73
2023-05-05T07:13:36.002Z,43.25
2023-05-05T07:14:36.094Z,46.27
2023-05-05T07:15:36.048Z,46.31
2023-05-05T07:16:36.096Z,48.30
2023-05-05T07:17:36.138Z,47.13
2023-05-05T07:18:36.127Z,45.74
2023-05-05T07:19:36.186Z,46.08
2023-05-05T07:20:36.209Z,44.74
2023-05-05T07:21:36.207Z,46.49
2023-05-05T07:22:36.217Z,44.57
2023-05-05T07:23:36.385Z,46.35
2023-05-05T07:24:36.294Z,46.24
2023-05-05T07:25:36.340Z,44.26
2023-05-05T07:26:36.326Z,45.04
2023-05-05T07:27:36.364Z,44.03
2023-05-05T07:28:36.373Z,43.18
2023-05-05T07:29:36.400Z,44.71
2023-05-05T07:30:36.499Z,45.77
2023-05-05T07:31:36.470Z,46.42
2023-05-05T07:32:36.497Z,41.88
2023-05-05T07:33:36.524Z,44.14
2023-05-05T07:34:39.528Z,45.89
2023-05-05T07:35:36.542Z,48.39
2023-05-05T07:36:36.541Z,45.39
2023-05-05T07:37:36.509Z,47.77
2023-05-05T07:38:36.532Z,44.80
2023-05-05T07:39:36.491Z,44.19
2023-05-05T07:40:36.472Z,44.38
2023-05-05T07:41:36.479Z,44.93
2023-05-05T07:42:36.540Z,46.50
2023-05-05T07:43:36.756Z,42.08
2023-05-05T07:44:36.458Z,45.82
2023-05-05T07:45:36.461Z,47.28
2023-05-05T07:46:36.803Z,43.43
2023-05-05T07:47:36.511Z,45.29
2023-05-05T07:48:36.449Z,45.40
2023-05-05T07:49:36.435Z,44.81
2023-05-05T07:50:36.452Z,46.64
2023-05-05T07:51:36.420Z,48.56
2023-05-05T07:52:46.492Z,40.62
2023-05-05T07:53:37.398Z,40.97
2023-05-05T07:54:36.425Z,41.69
2023-05-05T07:55:36.393Z,42.38
2023-05-05T07:56:36.389Z,44.44
2023-05-05T07:57:36.399Z,46.89
2023-05-05T07:58:36.400Z,47.23
2023-05-05T07:59:36.367Z,45.77
2023-05-05T08:00:36.353Z,47.66
2023-05-05T08:01:36.353Z,46.03
2023-05-05T08:02:36.711Z,47.15
2023-05-05T08:03:36.522Z,46.35
2023-05-05T08:04:36.372Z,46.37
2023-05-05T08:05:36.362Z,47.16
2023-05-05T08:06:36.307Z,48.74
2023-05-05T08:07:36.328Z,48.36
2023-05-05T08:08:36.309Z,47.15
2023-05-05T08:09:36.308Z,49.00
2023-05-05T08:10:36.341Z,49.40
2023-05-05T08:11:36.293Z,48.54
2023-05-05T08:12:36.345Z,48.32
2023-05-05T08:13:36.295Z,50.14
2023-05-05T08:14:36.274Z,48.59
2023-05-05T08:15:36.251Z,49.71
2023-05-05T08:16:36.497Z,49.70
2023-05-05T08:17:36.399Z,51.32
2023-05-05T08:18:36.472Z,48.50
2023-05-05T08:19:36.352Z,50.40
2023-05-05T08:20:36.396Z,49.94
2023-05-05T08:21:36.444Z,50.94
2023-05-05T08:22:36.431Z,49.92
2023-05-05T08:23:36.443Z,52.69
2023-05-05T08:24:36.488Z,52.84
2023-05-05T08:25:36.514Z,52.88
2023-05-05T08:26:36.514Z,51.71
2023-05-05T08:27:36.562Z,50.14
2023-05-05T08:28:36.562Z,50.38
2023-05-05T08:29:36.562Z,51.42
2023-05-05T08:30:36.597Z,51.38
2023-05-05T08:31:36.670Z,54.37
2023-05-05T08:32:36.652Z,54.21
2023-05-05T08:33:36.649Z,54.81
2023-05-05T08:34:36.731Z,53.61
2023-05-05T08:35:36.663Z,55.39
2023-05-05T08:36:36.730Z,55.55
2023-05-05T08:37:37.058Z,55.28
2023-05-05T08:38:36.759Z,54.16
2023-05-05T08:39:36.781Z,54.18
2023-05-05T08:40:36.749Z,57.39
2023-05-05T08:41:36.807Z,55.95
2023-05-05T08:42:38.505Z,55.77
2023-05-05T08:43:36.853Z,54.11
2023-05-05T08:44:36.893Z,55.66
2023-05-05T08:45:36.891Z,55.90
2023-05-05T08:46:36.938Z,60.19
2023-05-05T08:47:37.022Z,61.61
2023-05-05T08:48:36.975Z,71.00
2023-05-05T08:49:36.994Z,80.04
2023-05-05T08:50:37.080Z,82.07
2023-05-05T08:51:37.045Z,84.76
2023-05-05T08:52:37.584Z,91.09
2023-05-05T08:53:37.112Z,99.49
2023-05-05T08:54:37.103Z,102.87
2023-05-05T08:55:37.107Z,106.41
2023-05-05T08:56:37.137Z,112.27
2023-05-05T08:57:37.178Z,110.72
2023-05-05T08:58:37.150Z,110.80
2023-05-05T08:59:37.186Z,111.36
2023-05-05T09:00:37.212Z,110.10
2023-05-05T09:01:37.348Z,108.79
2023-05-05T09:02:37.307Z,105.57
2023-05-05T09:03:37.282Z,102.71
2023-05-05T09:04:37.297Z,98.33
2023-05-05T09:05:37.309Z,98.60
2023-05-05T09:06:37.512Z,93.26
2023-05-05T09:07:37.545Z,93.60
2023-05-05T09:08:37.348Z,88.34
2023-05-05T09:09:37.404Z,84.50
2023-05-05T09:10:37.416Z,78.98
2023-05-05T09:11:37.454Z,79.38
2023-05-05T09:12:37.471Z,76.35
2023-05-05T09:13:37.487Z,74.32
2023-05-05T09:14:37.491Z,70.99
2023-05-05T09:15:37.500Z,66.83
2023-05-05T09:16:37.641Z,64.11
2023-05-05T09:17:37.671Z,59.56
2023-05-05T09:18:37.573Z,54.29
2023-05-05T09:19:37.616Z,55.68
2023-05-05T09:20:37.612Z,49.67
2023-05-05T09:21:37.644Z,47.41
2023-05-05T09:22:38.034Z,44.64
2023-05-05T09:23:37.646Z,44.34
2023-05-05T09:24:37.640Z,35.70
2023-05-05T09:25:37.788Z,37.78
2023-05-05T09:26:37.809Z,38.26
2023-05-05T09:27:38.040Z,38.38
2023-05-05T09:28:37.700Z,36.77
2023-05-05T09:29:37.735Z,35.22
2023-05-05T09:30:37.798Z,32.95
2023-05-05T09:31:37.800Z,33.17
2023-05-05T09:32:37.822Z,30.85
2023-05-05T09:33:37.794Z,33.78
2023-05-05T09:34:37.845Z,36.75
2023-05-05T09:35:37.856Z,36.59
2023-05-05T09:36:38.560Z,41.53
2023-05-05T09:37:37.864Z,43.53
2023-05-05T09:38:37.961Z,41.25
2023-05-05T09:39:37.907Z,35.99
2023-05-05T09:40:37.902Z,39.79
2023-05-05T09:41:37.947Z,37.88
2023-05-05T09:42:38.069Z,37.97
2023-05-05T09:43:37.975Z,41.00
2023-05-05T09:44:38.002Z,44.20
2023-05-05T09:45:38.019Z,49.68
2023-05-05T09:46:38.054Z,51.58
2023-05-05T09:47:38.140Z,51.77
2023-05-05T09:48:38.072Z,52.65
2023-05-05T09:49:38.109Z,56.99
2023-05-05T09:50:38.147Z,58.33
2023-05-05T09:51:38.150Z,59.81
2023-05-05T09:52:38.179Z,58.41
2023-05-05T09:53:38.169Z,61.02
2023-05-05T09:54:38.265Z,65.60
2023-05-05T09:55:38.218Z,62.04
2023-05-05T09:56:38.240Z,65.57
2023-05-05T09:57:38.548Z,66.12
2023-05-05T09:58:38.319Z,66.64
2023-05-05T09:59:38.290Z,71.74
2023-05-05T10:00:38.306Z,73.30
2023-05-05T10:01:38.449Z,72.87
2023-05-05T10:02:38.739Z,78.68
2023-05-05T10:03:38.321Z,77.69
2023-05-05T10:04:38.368Z,80.19
2023-05-05T10:05:38.362Z,80.61
2023-05-05T10:06:38.355Z,81.35
2023-05-05T10:07:38.395Z,82.90
2023-05-05T10:08:38.402Z,84.46
2023-05-05T10:09:38.407Z,85.02
2023-05-05T10:10:38.507Z,83.39
2023-05-05T10:11:38.591Z,82.05
2023-05-05T10:12:38.517Z,83.18
2023-05-05T10:13:38.474Z,84.81
2023-05-05T10:14:38.476Z,85.29
2023-05-05T10:15:38.507Z,88.02
2023-05-05T10:16:38.575Z,88.35
2023-05-05T10:17:38.619Z,86.74
2023-05-05T10:18:38.629Z,90.08
2023-05-05T10:19:38.523Z,92.89
2023-05-05T10:20:38.647Z,90.58
2023-05-05T10:21:39.320Z,92.52
2023-05-05T10:22:38.579Z,93.37
2023-05-05T10:23:38.525Z,90.67
2023-05-05T10:24:38.520Z,92.55
2023-05-05T10:25:38.589Z,90.41
2023-05-05T10:26:38.625Z,91.21
2023-05-05T10:27:38.534Z,91.93
2023-05-05T10:28:38.527Z,93.29
2023-05-05T10:29:38.541Z,93.16
2023-05-05T10:30:38.496Z,93.39
2023-05-05T10:31:38.506Z,91.50
2023-05-05T10:33:38.751Z,94.48
2023-05-05T10:34:38.562Z,95.59
2023-05-05T10:35:38.485Z,96.06
2023-05-05T10:36:38.462Z,96.33
2023-05-05T10:37:39.101Z,96.97
2023-05-05T10:38:38.448Z,94.28
2023-05-05T10:39:38.452Z,92.81
2023-05-05T10:40:38.415Z,95.67
2023-05-05T10:41:38.435Z,95.80
2023-05-05T10:42:38.586Z,96.81
2023-05-05T10:43:38.443Z,100.57
2023-05-05T10:44:38.428Z,96.21
2023-05-05T10:45:38.538Z,103.06
2023-05-05T10:46:38.474Z,101.30
2023-05-05T10:47:38.438Z,99.04
2023-05-05T10:48:38.443Z,99.99
2023-05-05T10:49:38.398Z,102.04
2023-05-05T10:50:38.381Z,102.99
2023-05-05T10:51:41.013Z,103.05
2023-05-05T10:52:38.335Z,103.28
2023-05-05T10:53:38.360Z,103.50
2023-05-05T10:54:38.636Z,103.78
2023-05-05T10:55:38.356Z,104.92
2023-05-05T10:56:38.341Z,107.80
2023-05-05T10:57:38.316Z,108.52
2023-05-05T10:58:51.077Z,105.81
2023-05-05T10:59:39.333Z,106.26
2023-05-05T11:00:38.306Z,107.43
2023-05-05T11:01:38.348Z,108.69
2023-05-05T11:02:38.304Z,108.79
2023-05-05T11:03:38.317Z,109.52
2023-05-05T11:04:38.286Z,110.59
2023-05-05T11:05:38.280Z,111.37
2023-05-05T11:06:38.290Z,110.97
2023-05-05T11:07:38.271Z,109.77
2023-05-05T11:08:38.253Z,109.10
2023-05-05T11:09:38.265Z,111.65
2023-05-05T11:10:38.239Z,108.80
2023-05-05T11:11:38.231Z,109.00
2023-05-05T11:12:38.911Z,106.43
2023-05-05T11:13:38.203Z,109.41
2023-05-05T11:14:38.279Z,109.11
2023-05-05T11:15:38.259Z,109.35
2023-05-05T11:16:38.236Z,109.25
2023-05-05T11:17:38.233Z,110.28
2023-05-05T11:18:38.229Z,108.84
2023-05-05T11:19:38.188Z,111.96
2023-05-05T11:20:38.176Z,110.62
2023-05-05T11:21:38.174Z,112.31
2023-05-05T11:22:38.212Z,111.01
2023-05-05T11:23:38.195Z,112.26
2023-05-05T11:24:38.131Z,111.02
2023-05-05T11:25:38.392Z,111.72
2023-05-05T11:26:38.160Z,113.34
2023-05-05T11:27:38.156Z,111.79
2023-05-05T11:28:38.604Z,112.28
2023-05-05T11:29:38.117Z,112.39
2023-05-05T11:30:38.185Z,114.03
2023-05-05T11:31:38.206Z,110.55
2023-05-05T11:32:38.209Z,112.79
2023-05-05T11:33:38.140Z,110.24
2023-05-05T11:34:38.082Z,108.76
2023-05-05T11:35:38.056Z,107.13
2023-05-05T11:36:38.059Z,108.76
2023-05-05T11:37:38.069Z,107.97
2023-05-05T11:38:38.079Z,114.99
2023-05-05T11:39:38.062Z,115.02
2023-05-05T11:40:38.055Z,114.18
2023-05-05T11:41:38.056Z,115.00
2023-05-05T11:42:38.031Z,116.04
2023-05-05T11:43:38.075Z,126.27
2023-05-05T11:44:38.056Z,130.78
2023-05-05T11:45:38.055Z,133.49
2023-05-05T11:46:38.142Z,136.46
2023-05-05T11:47:38.080Z,139.58
2023-05-05T11:48:38.050Z,139.70
2023-05-05T11:49:38.095Z,142.68
2023-05-05T11:50:38.078Z,144.38
2023-05-05T11:51:38.068Z,146.52
2023-05-05T11:52:38.185Z,147.22
2023-05-05T11:53:38.208Z,150.88
2023-05-05T11:54:38.248Z,155.84
2023-05-05T11:55:38.339Z,153.54
2023-05-05T11:56:38.412Z,153.66
2023-05-05T11:57:38.425Z,151.57
2023-05-05T11:58:38.478Z,153.43
2023-05-05T11:59:38.567Z,155.56
2023-05-05T12:00:38.584Z,154.32
2023-05-05T12:01:38.628Z,154.70
2023-05-05T12:02:38.708Z,157.27
2023-05-05T12:03:38.872Z,154.80
2023-05-05T12:04:38.812Z,160.39
2023-05-05T12:05:38.784Z,157.64
2023-05-05T12:06:38.847Z,154.83
2023-05-05T12:07:38.898Z,157.74
2023-05-05T12:08:38.920Z,158.03
2023-05-05T12:09:39.009Z,160.02
2023-05-05T12:10:39.070Z,156.73
2023-05-05T12:11:39.124Z,163.07
2023-05-05T12:12:39.213Z,162.32
2023-05-05T12:13:39.275Z,161.49
2023-05-05T12:14:39.312Z,162.06
2023-05-05T12:15:39.361Z,159.97
2023-05-05T12:16:39.534Z,160.03
2023-05-05T12:17:39.552Z,158.74
2023-05-05T12:18:39.641Z,160.33
2023-05-05T12:19:39.643Z,159.86
2023-05-05T12:20:39.697Z,159.91
2023-05-05T12:21:39.825Z,162.20
2023-05-05T12:22:39.820Z,157.79
2023-05-05T12:23:39.893Z,157.51
2023-05-05T12:24:39.930Z,161.64
2023-05-05T12:25:40.009Z,158.94
2023-05-05T12:26:40.145Z,160.60
2023-05-05T12:27:40.128Z,156.22
2023-05-05T12:28:40.187Z,159.49
2023-05-05T12:29:40.268Z,162.76
2023-05-05T12:30:40.393Z,159.17
2023-05-05T12:31:40.443Z,157.20
2023-05-05T12:32:40.455Z,160.34
2023-05-05T12:33:40.521Z,157.32
2023-05-05T12:34:40.562Z,155.96
2023-05-05T12:35:40.645Z,155.14
2023-05-05T12:36:40.703Z,158.05
2023-05-05T12:37:40.753Z,158.66
2023-05-05T12:38:40.826Z,158.69
2023-05-05T12:39:40.876Z,156.86
2023-05-05T12:40:40.949Z,158.93
2023-05-05T12:41:40.971Z,159.14
2023-05-05T12:42:41.031Z,162.01
2023-05-05T12:43:41.113Z,158.36
2023-05-05T12:44:41.182Z,158.83
2023-05-05T12:45:41.262Z,156.40
2023-05-05T12:46:41.284Z,158.07
2023-05-05T12:47:41.348Z,157.49
2023-05-05T12:48:41.418Z,158.56
2023-05-05T12:49:41.428Z,156.29